createdAt,value
2019-06-10T00:00:59.033Z,42.00
2019-06-10T00:03:31.798Z,41.00
2019-06-10T00:06:04.090Z,41.80
2019-06-10T00:08:36.717Z,40.80
2019-06-10T00:11:08.491Z,42.40
2019-06-10T00:13:41.426Z,38.60
2019-06-10T00:16:13.009Z,43.40
2019-06-10T00:18:45.808Z,49.60
2019-06-10T00:21:17.892Z,50.00
2019-06-10T00:23:51.617Z,51.40
2019-06-10T00:26:22.317Z,50.20
2019-06-10T00:28:54.086Z,49.40
2019-06-10T00:31:25.920Z,49.20
2019-06-10T00:33:58.623Z,45.40
2019-06-10T00:36:31.044Z,48.80
2019-06-10T00:39:04.962Z,51.40
2019-06-10T00:41:36.250Z,43.60
2019-06-10T00:44:08.403Z,50.00
2019-06-10T00:46:40.850Z,49.40
2019-06-10T00:49:14.596Z,51.00
2019-06-10T00:51:46.164Z,51.60
2019-06-10T00:54:17.511Z,50.60
2019-06-10T00:56:48.826Z,49.20
2019-06-10T00:59:22.092Z,50.60
2019-06-10T01:01:53.276Z,50.40
2019-06-10T01:04:24.718Z,49.20
2019-06-10T01:06:56.120Z,51.80
2019-06-10T01:09:27.729Z,48.60
2019-06-10T01:12:01.169Z,50.20
2019-06-10T01:14:32.962Z,51.00
2019-06-10T01:17:05.484Z,55.20
2019-06-10T01:19:36.837Z,55.60
2019-06-10T01:22:10.671Z,54.80
2019-06-10T01:24:41.464Z,53.60
2019-06-10T01:27:15.171Z,53.80
2019-06-10T01:29:46.973Z,52.20
2019-06-10T01:32:18.404Z,49.60
2019-06-10T01:34:50.846Z,45.60
2019-06-10T01:37:22.768Z,49.60
2019-06-10T01:39:54.140Z,51.00
2019-06-10T01:42:25.898Z,52.00
2019-06-10T01:44:57.500Z,54.00
2019-06-10T01:47:30.845Z,72.00
2019-06-10T01:50:02.071Z,69.00
2019-06-10T01:52:34.154Z,68.40
2019-06-10T01:55:07.480Z,61.60
2019-06-10T01:57:41.123Z,71.60
2019-06-10T02:00:19.502Z,66.00
2019-06-10T02:02:47.358Z,69.20
2019-06-10T02:05:20.286Z,67.20
2019-06-10T02:07:52.837Z,70.00
2019-06-10T02:10:24.356Z,66.40
2019-06-10T02:12:56.113Z,68.00
2019-06-10T02:15:27.579Z,69.00
2019-06-10T02:18:01.145Z,69.40
2019-06-10T02:20:33.447Z,64.00
2019-06-10T02:23:05.160Z,61.40
2019-06-10T02:25:36.732Z,62.80
2019-06-10T02:28:08.317Z,65.20
2019-06-10T02:30:49.281Z,66.40
2019-06-10T02:33:17.383Z,65.60
2019-06-10T02:35:49.143Z,64.20
2019-06-10T02:38:32.144Z,59.80
2019-06-10T02:40:54.015Z,59.20
2019-06-10T02:43:32.018Z,57.40
2019-06-10T02:46:03.906Z,60.20
2019-06-10T02:48:35.312Z,46.00
2019-06-10T02:51:08.439Z,56.60
2019-06-10T02:53:43.050Z,57.40
2019-06-10T02:56:14.759Z,52.00
2019-06-10T02:58:47.228Z,50.40
2019-06-10T03:01:21.457Z,51.80
2019-06-10T03:03:54.359Z,51.80
2019-06-10T03:06:35.110Z,48.20
2019-06-10T03:09:03.880Z,46.80
2019-06-10T03:11:37.046Z,46.00
2019-06-10T03:14:08.590Z,46.60
2019-06-10T03:16:45.572Z,44.60
2019-06-10T03:19:29.954Z,47.00
2019-06-10T03:21:52.151Z,45.20
2019-06-10T03:24:25.310Z,46.00
2019-06-10T03:26:58.157Z,45.00
2019-06-10T03:29:29.935Z,45.60
2019-06-10T03:32:05.059Z,43.60
2019-06-10T03:34:41.586Z,45.60
2019-06-10T03:37:08.168Z,45.80
2019-06-10T03:39:42.529Z,46.80
2019-06-10T03:42:12.953Z,47.00
2019-06-10T03:44:45.102Z,39.60
2019-06-10T03:47:17.076Z,38.20
2019-06-10T03:49:52.505Z,40.20
2019-06-10T03:52:24.059Z,39.80
2019-06-10T03:54:55.631Z,41.00
2019-06-10T03:57:28.605Z,35.20
2019-06-10T04:00:03.530Z,35.40
2019-06-10T04:02:33.979Z,35.40
2019-06-10T04:05:06.184Z,34.20
2019-06-10T04:07:37.621Z,33.60
2019-06-10T04:10:09.634Z,34.40
2019-06-10T04:12:43.289Z,32.60
2019-06-10T04:15:14.782Z,32.40
2019-06-10T04:17:46.248Z,34.20
2019-06-10T04:20:18.121Z,33.00
2019-06-10T04:22:49.451Z,32.40
2019-06-10T04:25:24.682Z,29.80
2019-06-10T04:27:55.274Z,31.40
2019-06-10T04:30:28.143Z,26.60
2019-06-10T04:33:02.152Z,33.40
2019-06-10T04:35:33.668Z,33.40
2019-06-10T04:38:05.606Z,32.60
2019-06-10T04:40:37.003Z,36.80
2019-06-10T04:43:12.288Z,37.20
2019-06-10T04:45:43.682Z,31.80
2019-06-10T04:48:15.201Z,28.60
2019-06-10T04:50:46.971Z,32.60
2019-06-10T04:53:18.749Z,35.40
2019-06-10T04:55:52.100Z,32.20
2019-06-10T04:58:27.036Z,32.00
2019-06-10T05:00:56.988Z,33.60
2019-06-10T05:03:29.588Z,35.00
2019-06-10T05:06:03.427Z,34.00
2019-06-10T05:08:34.952Z,34.80
2019-06-10T05:11:06.514Z,36.00
2019-06-10T05:13:38.279Z,33.80
2019-06-10T05:16:12.525Z,31.00
2019-06-10T05:18:44.818Z,31.40
2019-06-10T05:21:16.277Z,30.60
2019-06-10T05:23:48.002Z,33.20
2019-06-10T05:26:20.043Z,32.40
2019-06-10T05:28:52.888Z,27.80
2019-06-10T05:31:27.351Z,28.00
2019-06-10T05:33:57.779Z,27.60
2019-06-10T05:36:31.057Z,21.80
2019-06-10T05:39:02.818Z,27.00
2019-06-10T05:41:35.177Z,30.00
2019-06-10T05:44:06.630Z,28.00
2019-06-10T05:46:38.561Z,26.40
2019-06-10T05:49:12.492Z,26.80
2019-06-10T05:51:44.530Z,22.60
2019-06-10T05:54:16.213Z,23.20
2019-06-10T05:56:47.860Z,24.20
2019-06-10T05:59:19.242Z,22.60
2019-06-10T06:01:53.944Z,26.40
2019-06-10T06:04:25.062Z,24.80
2019-06-10T06:06:57.582Z,26.20
2019-06-10T06:09:29.460Z,22.20
2019-06-10T06:12:02.519Z,22.40
2019-06-10T06:14:36.144Z,25.60
2019-06-10T06:17:07.741Z,22.40
2019-06-10T06:19:39.055Z,22.60
2019-06-10T06:22:12.656Z,19.20
2019-06-10T06:24:43.966Z,23.40
2019-06-10T06:27:15.605Z,23.00
2019-06-10T06:29:47.913Z,22.80
2019-06-10T06:32:19.499Z,19.60
2019-06-10T06:34:52.693Z,21.40
2019-06-10T06:37:24.674Z,20.00
2019-06-10T06:39:56.062Z,22.40
2019-06-10T06:42:27.653Z,23.40
2019-06-10T06:44:59.730Z,20.20
2019-06-10T06:47:34.057Z,23.80
2019-06-10T06:50:04.746Z,20.60
2019-06-10T06:53:13.964Z,20.40
2019-06-10T06:55:09.845Z,20.40
2019-06-10T06:57:43.170Z,23.20
2019-06-10T07:00:41.028Z,22.40
2019-06-10T07:02:48.148Z,20.20
2019-06-10T07:05:19.751Z,20.20
2019-06-10T07:07:52.735Z,20.60
2019-06-10T07:10:24.831Z,25.40
2019-06-10T07:12:59.079Z,21.40
2019-06-10T07:15:46.929Z,22.60
2019-06-10T07:18:18.333Z,20.20
2019-06-10T07:20:49.726Z,24.80
2019-06-10T07:23:22.512Z,25.00
2019-06-10T07:25:54.391Z,21.60
2019-06-10T07:28:26.365Z,22.80
2019-06-10T07:30:57.974Z,25.80
2019-06-10T07:33:29.735Z,23.80
2019-06-10T07:36:03.170Z,24.80
2019-06-10T07:38:38.961Z,21.20
2019-06-10T07:41:09.394Z,26.80
2019-06-10T07:43:46.504Z,24.00
2019-06-10T07:46:14.825Z,19.20
2019-06-10T07:48:48.641Z,29.00
2019-06-10T07:51:22.343Z,25.20
2019-06-10T07:53:53.863Z,19.20
2019-06-10T07:56:25.408Z,22.60
2019-06-10T07:58:57.365Z,23.00
2019-06-10T08:01:29.018Z,21.80
2019-06-10T08:04:02.953Z,21.00
2019-06-10T08:06:36.099Z,21.00
2019-06-10T08:09:08.047Z,18.40
2019-06-10T08:11:39.822Z,17.40
2019-06-10T08:14:13.126Z,22.60
2019-06-10T08:16:46.698Z,18.00
2019-06-10T08:19:33.358Z,19.20
2019-06-10T08:21:53.644Z,20.60
2019-06-10T08:24:25.011Z,21.20
2019-06-10T08:26:56.641Z,20.40
2019-06-10T08:29:28.497Z,23.60
2019-06-10T08:32:03.015Z,22.20
2019-06-10T08:34:33.779Z,22.60
2019-06-10T08:37:05.285Z,17.00
2019-06-10T08:39:38.157Z,23.60
2019-06-10T08:42:09.818Z,19.40
2019-06-10T08:44:43.506Z,20.80
2019-06-10T08:47:14.808Z,22.80
2019-06-10T08:49:48.811Z,20.20
2019-06-10T08:52:19.411Z,15.60
2019-06-10T08:54:54.143Z,22.00
2019-06-10T08:57:24.262Z,19.40
2019-06-10T08:59:55.735Z,18.80
2019-06-10T09:02:27.300Z,18.80
2019-06-10T09:04:58.994Z,21.80
2019-06-10T09:07:32.264Z,19.00
2019-06-10T09:10:05.895Z,20.20
2019-06-10T09:12:38.487Z,21.20
2019-06-10T09:15:13.039Z,20.40
2019-06-10T09:17:49.345Z,18.40
2019-06-10T09:20:22.994Z,16.80
2019-06-10T09:23:13.938Z,13.80
2019-06-10T09:25:28.203Z,17.80
2019-06-10T09:28:02.218Z,14.40
2019-06-10T09:30:36.732Z,16.60
2019-06-10T09:33:09.007Z,16.40
2019-06-10T09:35:42.552Z,16.00
2019-06-10T09:38:14.283Z,16.20
2019-06-10T09:41:00.875Z,14.40
2019-06-10T09:43:26.922Z,14.60
2019-06-10T09:45:58.843Z,15.20
2019-06-10T09:48:33.305Z,16.20
2019-06-10T09:51:04.485Z,15.00
2019-06-10T09:53:42.798Z,18.00
2019-06-10T09:56:09.533Z,18.20
2019-06-10T09:58:44.722Z,16.00
2019-06-10T10:01:14.558Z,15.80
2019-06-10T10:03:50.206Z,17.20
2019-06-10T10:06:19.620Z,17.00
2019-06-10T10:08:57.536Z,15.60
2019-06-10T10:11:28.264Z,16.00
2019-06-10T10:13:58.547Z,13.60
2019-06-10T10:16:33.906Z,7.60
2019-06-10T10:19:06.659Z,14.00
2019-06-10T10:21:41.242Z,15.00
2019-06-10T10:24:14.953Z,15.40
2019-06-10T10:26:48.585Z,16.80
2019-06-10T10:29:19.227Z,13.00
2019-06-10T10:31:52.733Z,16.00
2019-06-10T10:34:24.775Z,16.80
2019-06-10T10:36:57.363Z,17.00
2019-06-10T10:39:29.313Z,18.60
2019-06-10T10:42:04.007Z,16.40
2019-06-10T10:44:35.781Z,15.80
2019-06-10T10:47:07.645Z,17.00
2019-06-10T10:49:39.562Z,16.40
2019-06-10T10:52:12.975Z,15.80
2019-06-10T10:54:46.183Z,14.00
2019-06-10T10:57:18.209Z,15.60
2019-06-10T10:59:52.455Z,17.80
2019-06-10T11:02:23.890Z,17.60
2019-06-10T11:04:56.999Z,15.00
2019-06-10T11:07:28.935Z,15.40
2019-06-10T11:10:00.456Z,17.20
2019-06-10T11:12:34.308Z,16.20
2019-06-10T11:15:06.873Z,14.00
2019-06-10T11:17:38.864Z,16.20
2019-06-10T11:20:12.991Z,15.60
2019-06-10T11:22:45.734Z,15.80
2019-06-10T11:25:17.472Z,16.80
2019-06-10T11:27:50.013Z,12.80
2019-06-10T11:30:22.408Z,11.60
2019-06-10T11:32:57.714Z,12.80
2019-06-10T11:35:27.380Z,9.80
2019-06-10T11:37:58.688Z,11.60
2019-06-10T11:40:34.217Z,12.80
2019-06-10T11:43:05.474Z,14.60
2019-06-10T11:45:37.242Z,13.20
2019-06-10T11:48:08.965Z,13.60
2019-06-10T11:50:42.845Z,11.80
2019-06-10T11:53:14.834Z,9.20
2019-06-10T11:55:47.611Z,14.40
2019-06-10T11:58:19.191Z,15.00
2019-06-10T12:00:54.306Z,14.20
2019-06-10T12:03:23.758Z,17.00
2019-06-10T12:05:57.774Z,13.80
2019-06-10T12:08:32.688Z,13.60
2019-06-10T12:11:03.142Z,15.00
2019-06-10T12:13:34.917Z,13.80
2019-06-10T12:16:51.500Z,14.80
2019-06-10T12:18:42.641Z,14.60
2019-06-10T12:21:14.194Z,16.20
2019-06-10T12:23:46.510Z,16.40
2019-06-10T12:26:18.159Z,15.20
2019-06-10T12:28:50.704Z,17.20
2019-06-10T12:31:23.414Z,16.00
2019-06-10T12:33:57.279Z,17.80
2019-06-10T12:36:28.429Z,12.20
2019-06-10T12:39:06.792Z,12.20
2019-06-10T12:41:35.179Z,14.60
2019-06-10T12:44:06.518Z,16.60
2019-06-10T12:46:38.121Z,15.80
2019-06-10T12:49:09.641Z,9.00
2019-06-10T12:51:41.589Z,16.00
2019-06-10T12:54:13.213Z,16.80
2019-06-10T12:56:45.041Z,17.80
2019-06-10T12:59:16.675Z,14.80
2019-06-10T13:01:49.623Z,16.00
2019-06-10T13:04:21.189Z,17.00
2019-06-10T13:06:53.523Z,6.00
2019-06-10T13:09:26.392Z,19.40
2019-06-10T13:11:58.343Z,20.40
2019-06-10T13:14:32.640Z,14.20
2019-06-10T13:17:05.774Z,20.00
2019-06-10T13:19:37.456Z,15.60
2019-06-10T13:22:08.979Z,14.40
2019-06-10T13:24:42.208Z,17.00
2019-06-10T13:27:13.522Z,17.80
2019-06-10T13:29:45.252Z,18.40
2019-06-10T13:32:16.912Z,19.20
2019-06-10T13:34:48.554Z,19.20
2019-06-10T13:37:19.936Z,22.20
2019-06-10T13:39:52.403Z,19.80
2019-06-10T13:42:24.131Z,22.20
2019-06-10T13:44:57.516Z,18.20
2019-06-10T13:47:29.197Z,21.00
2019-06-10T13:50:01.626Z,21.20
2019-06-10T13:52:35.756Z,20.20
2019-06-10T13:55:09.640Z,21.00
2019-06-10T13:57:42.659Z,20.40
2019-06-10T14:00:14.899Z,17.00
2019-06-10T14:02:46.457Z,17.20
2019-06-10T14:05:19.236Z,19.20
2019-06-10T14:07:52.114Z,20.80
2019-06-10T14:10:24.891Z,22.60
2019-06-10T14:12:56.371Z,19.20
2019-06-10T14:15:29.648Z,18.40
2019-06-10T14:18:01.833Z,22.00
2019-06-10T14:20:36.686Z,22.20
2019-06-10T14:23:08.030Z,20.20
2019-06-10T14:25:42.409Z,18.00
2019-06-10T14:28:32.451Z,18.80
2019-06-10T14:30:47.310Z,19.60
2019-06-10T14:33:18.868Z,19.40
2019-06-10T14:35:53.107Z,22.40
2019-06-10T14:38:23.653Z,21.40
2019-06-10T14:40:55.175Z,24.60
2019-06-10T14:43:26.727Z,28.00
2019-06-10T14:45:58.303Z,26.20
2019-06-10T14:48:29.928Z,23.20
2019-06-10T14:51:03.301Z,24.80
2019-06-10T14:53:34.569Z,25.00
2019-06-10T14:56:07.607Z,24.80
2019-06-10T14:58:39.477Z,24.40
2019-06-10T15:01:13.468Z,26.00
2019-06-10T15:03:44.682Z,30.20
2019-06-10T15:06:16.462Z,36.00
2019-06-10T15:08:54.380Z,34.40
2019-06-10T15:11:27.696Z,34.00
2019-06-10T15:13:59.373Z,34.00
2019-06-10T15:16:33.435Z,34.20
2019-06-10T15:19:14.659Z,35.20
2019-06-10T15:21:38.050Z,34.20
2019-06-10T15:24:09.888Z,38.00
2019-06-10T15:26:42.272Z,34.00
2019-06-10T15:29:17.023Z,34.40
2019-06-10T15:31:47.931Z,36.00
2019-06-10T15:34:20.055Z,37.20
2019-06-10T15:36:52.744Z,42.20
2019-06-10T15:39:24.416Z,42.80
2019-06-10T15:41:55.847Z,42.80
2019-06-10T15:44:47.877Z,40.40
2019-06-10T15:47:02.916Z,39.80
2019-06-10T15:49:33.766Z,39.80
2019-06-10T15:52:06.201Z,41.00
2019-06-10T15:54:37.784Z,41.20
2019-06-10T15:57:22.751Z,42.20
2019-06-10T15:59:43.137Z,41.60
2019-06-10T16:02:17.913Z,43.00
2019-06-10T16:04:57.506Z,43.80
2019-06-10T16:07:29.153Z,40.20
2019-06-10T16:10:02.717Z,42.60
2019-06-10T16:12:33.863Z,43.60
2019-06-10T16:15:05.456Z,41.60
2019-06-10T16:17:37.258Z,43.40
2019-06-10T16:20:09.392Z,44.00
2019-06-10T16:22:42.820Z,44.80
2019-06-10T16:25:14.345Z,42.00
2019-06-10T16:27:50.956Z,44.80
2019-06-10T16:30:20.826Z,44.60
2019-06-10T16:32:53.127Z,43.80
2019-06-10T16:35:26.798Z,43.60
2019-06-10T16:37:57.661Z,45.80
2019-06-10T16:40:29.048Z,42.80
2019-06-10T16:43:00.591Z,44.00
2019-06-10T16:45:34.015Z,46.60
2019-06-10T16:48:05.941Z,43.20
2019-06-10T16:50:37.482Z,45.60
2019-06-10T16:53:09.229Z,45.60
2019-06-10T16:55:40.976Z,44.40
2019-06-10T16:58:13.003Z,46.00
2019-06-10T17:00:44.616Z,44.20
2019-06-10T17:03:16.704Z,47.80
2019-06-10T17:05:48.319Z,47.60
2019-06-10T17:08:20.610Z,43.60
2019-06-10T17:10:53.104Z,45.60
2019-06-10T17:13:27.196Z,43.60
2019-06-10T17:15:59.736Z,49.40
2019-06-10T17:18:33.622Z,47.20
2019-06-10T17:21:07.547Z,48.00
2019-06-10T17:23:39.103Z,47.20
2019-06-10T17:26:10.752Z,46.40
2019-06-10T17:28:42.844Z,44.80
2019-06-10T17:31:15.199Z,45.00
2019-06-10T17:33:46.892Z,44.20
2019-06-10T17:36:18.625Z,43.60
2019-06-10T17:38:52.323Z,43.80
2019-06-10T17:41:26.261Z,41.40
2019-06-10T17:43:56.683Z,43.80
2019-06-10T17:46:29.484Z,42.40
2019-06-10T17:49:04.205Z,45.60
2019-06-10T17:51:36.309Z,43.80
2019-06-10T17:54:08.050Z,41.40
2019-06-10T17:56:39.485Z,47.20
2019-06-10T17:59:12.834Z,44.40
2019-06-10T18:01:44.216Z,46.20
2019-06-10T18:04:15.711Z,44.20
2019-06-10T18:06:47.271Z,44.60
2019-06-10T18:09:19.114Z,45.00
2019-06-10T18:11:50.564Z,42.00
2019-06-10T18:14:22.924Z,42.60
2019-06-10T18:16:55.208Z,43.80
2019-06-10T18:19:26.758Z,45.00
2019-06-10T18:21:58.623Z,42.80
2019-06-10T18:24:30.882Z,42.60
2019-06-10T18:27:02.746Z,46.00
2019-06-10T18:29:36.930Z,47.00
2019-06-10T18:32:07.872Z,45.20
2019-06-10T18:34:39.095Z,47.80
2019-06-10T18:37:10.649Z,47.60
2019-06-10T18:39:43.008Z,47.40
2019-06-10T18:42:14.705Z,48.60
2019-06-10T18:44:46.187Z,49.20
2019-06-10T18:47:17.728Z,48.80
2019-06-10T18:49:49.173Z,49.00
2019-06-10T18:52:23.186Z,48.20
2019-06-10T18:54:53.926Z,50.00
2019-06-10T18:57:28.784Z,50.00
2019-06-10T19:00:02.872Z,50.00
2019-06-10T19:02:34.450Z,50.00
2019-06-10T19:05:06.679Z,48.20
2019-06-10T19:07:38.708Z,49.80
2019-06-10T19:10:12.976Z,50.60
2019-06-10T19:12:44.750Z,46.40
2019-06-10T19:15:16.597Z,48.80
2019-06-10T19:17:48.149Z,43.40
2019-06-10T19:20:20.055Z,49.40
2019-06-10T19:22:52.719Z,47.20
2019-06-10T19:25:23.991Z,48.00
2019-06-10T19:27:55.646Z,45.80
2019-06-10T19:30:34.039Z,47.60
2019-06-10T19:33:05.923Z,46.20
2019-06-10T19:35:42.556Z,47.80
2019-06-10T19:38:13.714Z,47.20
2019-06-10T19:40:46.833Z,46.60
2019-06-10T19:43:27.639Z,48.40
2019-06-10T19:45:59.897Z,48.00
2019-06-10T19:48:35.385Z,45.80
2019-06-10T19:51:05.926Z,47.60
2019-06-10T19:53:37.373Z,48.80
2019-06-10T19:56:09.064Z,48.00
2019-06-10T19:58:42.985Z,48.40
2019-06-10T20:01:13.828Z,47.60
2019-06-10T20:03:54.541Z,46.20
2019-06-10T20:06:32.297Z,46.00
2019-06-10T20:09:03.880Z,48.20
2019-06-10T20:11:38.323Z,49.80
2019-06-10T20:14:12.690Z,48.60
2019-06-10T20:16:45.952Z,50.40
2019-06-10T20:19:17.219Z,48.00
2019-06-10T20:21:51.920Z,50.00
2019-06-10T20:24:23.710Z,48.20
2019-06-10T20:26:55.417Z,46.80
2019-06-10T20:29:27.759Z,46.60
2019-06-10T20:31:59.539Z,49.80
2019-06-10T20:34:31.616Z,49.60
2019-06-10T20:37:07.411Z,50.00
2019-06-10T20:39:40.567Z,50.00
2019-06-10T20:42:12.954Z,49.00
2019-06-10T20:44:45.985Z,46.80
2019-06-10T20:47:17.955Z,44.60
2019-06-10T20:49:51.850Z,46.60
2019-06-10T20:52:22.837Z,46.80
2019-06-10T20:54:54.299Z,47.00
2019-06-10T20:57:26.100Z,46.80
2019-06-10T20:59:57.969Z,43.00
2019-06-10T21:02:30.313Z,48.80
2019-06-10T21:05:06.120Z,46.00
2019-06-10T21:07:39.211Z,42.60
2019-06-10T21:10:12.854Z,43.80
2019-06-10T21:12:49.787Z,46.80
2019-06-10T21:15:23.316Z,45.20
2019-06-10T21:17:54.840Z,45.80
2019-06-10T21:20:33.118Z,44.60
2019-06-10T21:23:05.846Z,42.80
2019-06-10T21:25:43.151Z,44.80
2019-06-10T21:28:14.259Z,42.80
2019-06-10T21:30:58.634Z,46.00
2019-06-10T21:33:37.793Z,48.40
2019-06-10T21:36:15.652Z,42.00
2019-06-10T21:38:49.347Z,43.60
2019-06-10T21:41:22.886Z,42.00
2019-06-10T21:43:59.206Z,46.60
2019-06-10T21:46:27.785Z,42.20
2019-06-10T21:48:59.545Z,45.60
2019-06-10T21:51:34.149Z,44.40
2019-06-10T21:54:12.264Z,45.60
2019-06-10T21:56:44.531Z,45.00
2019-06-10T21:59:16.663Z,41.20
2019-06-10T22:01:49.187Z,42.80
2019-06-10T22:04:22.466Z,46.00
2019-06-10T22:06:55.986Z,45.80
2019-06-10T22:09:27.221Z,46.20
2019-06-10T22:11:58.842Z,46.00
2019-06-10T22:14:32.839Z,45.80
2019-06-10T22:17:03.934Z,41.40
2019-06-10T22:19:35.451Z,45.20
2019-06-10T22:22:07.166Z,43.20
2019-06-10T22:24:38.842Z,44.40
2019-06-10T22:27:10.236Z,45.60
2019-06-10T22:29:42.685Z,45.60
2019-06-10T22:32:14.157Z,41.60
2019-06-10T22:34:45.826Z,45.40
2019-06-10T22:37:17.391Z,44.00
2019-06-10T22:39:50.023Z,45.40
2019-06-10T22:42:22.341Z,45.40
2019-06-10T22:44:56.345Z,46.20
2019-06-10T22:47:26.790Z,47.40
2019-06-10T22:50:00.945Z,48.00
2019-06-10T22:52:32.668Z,47.40
2019-06-10T22:55:04.415Z,45.00
2019-06-10T22:57:37.588Z,46.20
2019-06-10T23:00:09.724Z,44.40
2019-06-10T23:02:43.714Z,45.00
2019-06-10T23:05:17.462Z,47.00
2019-06-10T23:07:50.786Z,47.00
2019-06-10T23:10:22.837Z,49.00
2019-06-10T23:12:56.340Z,44.80
2019-06-10T23:15:27.864Z,47.20
2019-06-10T23:18:00.305Z,47.00
2019-06-10T23:20:33.196Z,43.80
2019-06-10T23:23:05.031Z,47.00
2019-06-10T23:25:36.627Z,45.40
2019-06-10T23:28:08.007Z,47.20
2019-06-10T23:30:39.598Z,48.40
2019-06-10T23:33:12.492Z,45.60
2019-06-10T23:35:47.489Z,45.80
2019-06-10T23:38:17.699Z,47.60
2019-06-10T23:40:50.561Z,48.20
2019-06-10T23:43:22.647Z,47.80
2019-06-10T23:45:55.114Z,50.00
2019-06-10T23:48:26.804Z,47.20
2019-06-10T23:50:59.256Z,49.20
2019-06-10T23:53:32.813Z,49.00
2019-06-10T23:56:05.219Z,41.00
2019-06-10T23:58:36.853Z,47.00
